Time;durP1;ratioP1;P1;durP2;ratioP2;P2;SDS_P1;SDS_P2;PMS_P1;PMS_P2;Temp;Humidity;BMP_temperature;BMP_pressure;BME280_temperature;BME280_humidity;BME280_pressure;Samples;Min_cycle;Max_cycle;Signal;HPM_P1;HPM_P2
2023/07/23 00:02:42;;;;;;;10.70;6.43;;;;;;;16.92;73.37;100447.09;5055740;56;1140998;-64
2023/07/23 00:07:48;;;;;;;13.13;5.90;;;;;;;16.93;73.53;100441.59;5039706;57;1141055;-64
2023/07/23 00:12:54;;;;;;;9.07;5.53;;;;;;;16.95;73.61;100432.08;5078640;56;1140905;-64
2023/07/23 00:18:00;;;;;;;18.90;8.63;;;;;;;16.95;73.83;100419.56;5131218;55;1138860;-64
2023/07/23 00:23:06;;;;;;;16.47;7.53;;;;;;;16.96;73.99;100421.73;5098211;56;1141027;-64
2023/07/23 00:28:11;;;;;;;22.10;10.90;;;;;;;16.91;73.87;100426.72;5078288;56;1141147;-65
2023/07/23 00:33:20;;;;;;;37.42;13.38;;;;;;;16.83;73.90;100431.52;5183483;56;1142963;-66
2023/07/23 00:38:25;;;;;;;39.23;15.08;;;;;;;16.64;73.60;100419.28;4965401;57;1143701;-64
2023/07/23 00:43:31;;;;;;;41.35;16.23;;;;;;;16.46;74.09;100417.98;5128312;56;1143301;-64
2023/07/23 00:48:37;;;;;;;35.92;14.05;;;;;;;16.39;74.36;100414.27;5044155;57;1143149;-63
2023/07/23 00:53:43;;;;;;;30.53;13.13;;;;;;;16.33;74.51;100415.42;5064083;57;1143247;-64
2023/07/23 00:58:50;;;;;;;31.20;13.10;;;;;;;16.32;75.20;100414.58;5088831;56;1143189;-64
2023/07/23 01:03:55;;;;;;;29.83;12.03;;;;;;;16.37;75.70;100405.58;5070450;56;1143047;-63
2023/07/23 01:09:03;;;;;;;14.93;8.53;;;;;;;16.32;75.43;100406.58;5063821;56;1143059;-63
2023/07/23 01:14:10;;;;;;;14.60;8.30;;;;;;;16.22;75.59;100395.16;5039500;57;1141030;-63
2023/07/23 01:19:17;;;;;;;16.07;8.23;;;;;;;16.25;76.12;100381.50;5091125;56;1140907;-64
2023/07/23 01:24:23;;;;;;;15.16;8.62;;;;;;;16.26;76.09;100373.00;5035080;57;1140970;-64
2023/07/23 01:29:29;;;;;;;25.23;10.37;;;;;;;16.25;76.12;100371.32;5098851;56;1150036;-64
2023/07/23 01:34:36;;;;;;;16.30;8.75;;;;;;;16.22;76.25;100367.13;5125684;56;1142976;-64
2023/07/23 01:39:42;;;;;;;15.97;7.73;;;;;;;16.20;76.54;100365.12;5063565;57;1140886;-63
2023/07/23 01:44:48;;;;;;;16.23;7.47;;;;;;;16.14;76.25;100355.09;5056208;56;1140976;-64
2023/07/23 01:49:54;;;;;;;16.30;7.07;;;;;;;16.08;76.91;100353.05;4962864;57;1141086;-64
2023/07/23 01:54:59;;;;;;;15.60;7.00;;;;;;;16.00;76.65;100343.69;4958432;58;1141047;-63
2023/07/23 02:00:07;;;;;;;12.53;6.63;;;;;;;15.86;76.82;100349.11;5059843;57;1140899;-63
2023/07/23 02:05:15;;;;;;;11.90;5.90;;;;;;;15.72;76.94;100340.34;5039386;56;1140856;-64
2023/07/23 02:10:22;;;;;;;13.07;6.87;;;;;;;15.71;77.64;100335.51;5044042;57;1140799;-66
2023/07/23 02:15:27;;;;;;;12.60;6.60;;;;;;;15.67;77.75;100331.47;5056256;56;1140941;-64
2023/07/23 02:20:33;;;;;;;9.80;6.55;;;;;;;15.68;78.19;100325.16;5040301;57;1141025;-63
2023/07/23 02:25:41;;;;;;;16.57;6.97;;;;;;;15.64;78.42;100322.95;5040626;57;1138917;-63
2023/07/23 02:30:46;;;;;;;13.27;7.07;;;;;;;15.70;79.04;100318.33;5059417;57;1141211;-63
2023/07/23 02:35:52;;;;;;;10.57;5.73;;;;;;;15.75;79.22;100307.52;5129163;56;1140980;-63
2023/07/23 02:40:59;;;;;;;10.03;6.22;;;;;;;15.82;79.29;100307.73;5044383;57;1140922;-64
2023/07/23 02:46:05;;;;;;;7.80;5.37;;;;;;;15.89;79.29;100300.76;5096502;56;1140987;-65
2023/07/23 02:51:10;;;;;;;7.97;5.73;;;;;;;15.97;79.08;100299.98;4981352;56;1138978;-63
2023/07/23 02:56:16;;;;;;;6.57;5.20;;;;;;;15.98;78.64;100293.16;4996306;57;1138947;-63
2023/07/23 03:01:21;;;;;;;5.63;4.83;;;;;;;16.03;78.31;100296.19;5025691;57;1138765;-65
2023/07/23 03:06:28;;;;;;;7.03;4.55;;;;;;;16.09;78.11;100286.70;4944493;58;1138874;-65
2023/07/23 03:11:34;;;;;;;6.42;4.80;;;;;;;16.14;77.33;100281.23;4939375;58;1138653;-64
2023/07/23 03:16:40;;;;;;;5.35;4.42;;;;;;;16.19;77.17;100282.89;4991465;57;1138767;-64
2023/07/23 03:21:45;;;;;;;7.13;4.87;;;;;;;16.23;76.69;100286.08;5025136;57;1138789;-65
2023/07/23 03:26:51;;;;;;;4.63;4.20;;;;;;;16.26;75.95;100276.42;5014470;56;1138739;-64
2023/07/23 03:31:56;;;;;;;4.53;4.10;;;;;;;16.28;75.53;100273.60;5079159;56;1139043;-63
2023/07/23 03:37:02;;;;;;;8.30;4.30;;;;;;;16.30;75.22;100264.94;5030390;56;1138849;-64
2023/07/23 03:42:09;;;;;;;5.17;4.17;;;;;;;16.33;74.71;100258.78;4950086;57;1138662;-65
2023/07/23 03:47:18;;;;;;;10.43;5.07;;;;;;;16.37;74.22;100252.10;5032183;56;1138595;-64
2023/07/23 03:52:24;;;;;;;6.60;3.83;;;;;;;16.42;73.51;100250.28;5093441;56;1140674;-64
2023/07/23 03:57:29;;;;;;;4.30;3.90;;;;;;;16.48;73.51;100242.97;5101981;56;1138854;-65
2023/07/23 04:02:35;;;;;;;6.30;4.03;;;;;;;16.52;73.07;100237.12;5108783;56;1138728;-64
2023/07/23 04:07:41;;;;;;;3.92;3.32;;;;;;;16.59;72.54;100236.48;5064758;57;1138884;-63
2023/07/23 04:12:48;;;;;;;4.13;3.60;;;;;;;16.66;71.94;100226.32;5027974;56;1138760;-64
2023/07/23 04:17:53;;;;;;;4.40;3.70;;;;;;;16.72;71.71;100227.51;5103880;56;1138819;-64
2023/07/23 04:22:59;;;;;;;4.67;4.10;;;;;;;16.77;71.48;100226.02;5108544;56;1138954;-63
2023/07/23 04:28:05;;;;;;;4.08;3.38;;;;;;;16.84;71.55;100229.68;5149232;56;1138932;-63
2023/07/23 04:33:10;;;;;;;5.13;3.57;;;;;;;16.92;71.09;100227.53;5128958;56;1138750;-63
2023/07/23 04:38:17;;;;;;;5.57;4.20;;;;;;;16.98;70.42;100215.32;5128919;56;1138923;-64
2023/07/23 04:43:23;;;;;;;3.83;3.30;;;;;;;17.04;70.04;100218.17;5154268;56;1138916;-66
2023/07/23 04:48:28;;;;;;;3.72;3.40;;;;;;;17.10;70.53;100216.67;5048906;56;1138667;-63
2023/07/23 04:53:34;;;;;;;5.13;3.17;;;;;;;17.12;70.69;100210.13;4991696;57;1139006;-64
2023/07/23 04:58:40;;;;;;;5.23;3.80;;;;;;;17.16;70.79;100214.64;5049805;57;1139212;-64
2023/07/23 05:03:46;;;;;;;3.53;3.23;;;;;;;17.18;70.43;100210.80;4961078;57;1138736;-63
2023/07/23 05:08:52;;;;;;;4.55;3.25;;;;;;;17.22;70.64;100207.30;4860712;59;1138776;-63
2023/07/23 05:13:57;;;;;;;4.65;3.98;;;;;;;17.25;70.14;100204.80;4944182;57;1138874;-63
2023/07/23 05:19:03;;;;;;;5.00;3.60;;;;;;;17.27;70.31;100197.41;4962715;58;1139010;-63
2023/07/23 05:24:09;;;;;;;4.80;3.70;;;;;;;17.29;70.32;100196.75;5073140;56;1138949;-64
2023/07/23 05:29:14;;;;;;;3.97;3.57;;;;;;;17.28;69.99;100185.72;5106688;56;1138786;-64
2023/07/23 05:34:20;;;;;;;5.20;3.70;;;;;;;17.28;69.83;100189.73;5108034;56;1138696;-64
2023/07/23 05:39:26;;;;;;;5.27;4.50;;;;;;;17.30;70.07;100186.39;5089529;56;1138776;-63
2023/07/23 05:44:33;;;;;;;4.07;3.70;;;;;;;17.34;70.33;100179.20;5100626;56;1138781;-64
2023/07/23 05:49:38;;;;;;;4.20;3.62;;;;;;;17.41;70.45;100176.20;5121727;56;1139132;-63
2023/07/23 05:54:44;;;;;;;8.23;3.90;;;;;;;17.47;70.28;100178.66;5128957;56;1138972;-63
2023/07/23 05:59:49;;;;;;;4.40;3.40;;;;;;;17.49;69.78;100183.34;5141150;56;1139006;-63
2023/07/23 06:04:55;;;;;;;4.70;4.27;;;;;;;17.49;69.96;100194.88;5119941;56;1138851;-64
2023/07/23 06:10:00;;;;;;;4.97;3.73;;;;;;;17.48;70.64;100221.78;5119240;56;1138898;-64
2023/07/23 06:15:09;;;;;;;5.53;4.13;;;;;;;17.43;70.70;100238.83;5114698;56;1138637;-64
2023/07/23 06:20:14;;;;;;;4.60;3.73;;;;;;;17.43;71.89;100254.36;5092207;56;1138637;-64
2023/07/23 06:25:20;;;;;;;9.30;3.87;;;;;;;17.41;73.73;100242.20;5139472;56;1138809;-65
2023/07/23 06:30:25;;;;;;;8.53;3.63;;;;;;;17.36;74.29;100250.72;5068029;56;1138840;-65
2023/07/23 06:35:37;;;;;;;7.03;4.30;;;;;;;17.34;76.08;100252.72;5040914;57;1138740;-64
2023/07/23 06:40:40;;;;;;;5.65;3.62;;;;;;;17.29;76.76;100244.36;5064817;56;1139323;-64
2023/07/23 06:45:47;;;;;;;5.73;3.83;;;;;;;17.27;78.41;100245.53;5044691;56;1138798;-64
2023/07/23 06:50:53;;;;;;;5.70;4.30;;;;;;;17.19;79.93;100239.20;5044695;56;1139066;-64
2023/07/23 06:56:01;;;;;;;7.47;4.53;;;;;;;17.19;81.42;100238.37;5045256;56;1138773;-64
2023/07/23 07:01:09;;;;;;;10.07;4.87;;;;;;;17.19;81.94;100220.49;5064568;56;1138952;-64
2023/07/23 07:06:15;;;;;;;5.10;4.50;;;;;;;17.23;82.81;100207.64;5044864;56;1140581;-64
2023/07/23 07:11:21;;;;;;;4.62;4.00;;;;;;;17.31;82.95;100193.41;5041849;56;1138850;-65
2023/07/23 07:16:27;;;;;;;4.53;4.13;;;;;;;17.44;84.56;100196.37;5077868;56;1139185;-63
2023/07/23 07:21:32;;;;;;;4.78;4.35;;;;;;;17.54;83.80;100202.39;5099379;56;1138606;-64
2023/07/23 07:26:38;;;;;;;4.78;4.25;;;;;;;17.63;83.25;100202.69;5052940;56;1138809;-64
2023/07/23 07:31:44;;;;;;;8.80;4.37;;;;;;;17.73;82.73;100196.65;5064178;57;1138928;-64
2023/07/23 07:36:50;;;;;;;5.20;3.90;;;;;;;17.82;82.34;100194.30;5033449;57;1257420;-64
2023/07/23 07:41:56;;;;;;;5.50;4.50;;;;;;;17.93;82.18;100189.89;5040576;56;1138803;-64
2023/07/23 07:47:02;;;;;;;8.15;4.42;;;;;;;18.18;83.19;100185.77;5045497;57;1138939;-64
2023/07/23 07:52:08;;;;;;;5.75;4.85;;;;;;;18.37;81.64;100189.30;5067420;56;1138616;-64
2023/07/23 07:57:14;;;;;;;7.25;4.28;;;;;;;18.50;79.78;100182.02;5020318;57;1138649;-64
2023/07/23 08:02:20;;;;;;;14.80;5.90;;;;;;;18.63;79.47;100188.17;5062998;56;1138873;-64
2023/07/23 08:07:27;;;;;;;5.57;4.57;;;;;;;18.77;78.76;100190.08;4998918;57;1140904;-66
2023/07/23 08:12:34;;;;;;;5.23;4.70;;;;;;;19.06;78.41;100175.91;4933432;57;1138824;-64
2023/07/23 08:17:40;;;;;;;5.87;4.53;;;;;;;19.39;77.48;100164.35;5066012;56;1139164;-64
2023/07/23 08:22:46;;;;;;;5.12;4.60;;;;;;;19.64;77.37;100151.84;5109534;56;1138965;-65
2023/07/23 08:27:58;;;;;;;5.58;4.35;;;;;;;20.01;76.36;100155.39;5100803;56;1138681;-63
2023/07/23 08:33:02;;;;;;;21.47;8.83;;;;;;;20.36;74.65;100151.88;5045680;56;1138986;-64
2023/07/23 08:38:08;;;;;;;8.33;4.30;;;;;;;20.64;73.21;100155.13;5036119;57;1140988;-64
2023/07/23 08:43:27;;;;;;;6.87;4.30;;;;;;;20.91;71.49;100158.89;5024031;57;1139096;-64
2023/07/23 08:48:58;;;;;;;7.48;4.44;;;;;;;21.04;68.96;100163.86;4984209;57;1138793;-65
2023/07/23 08:54:06;;;;;;;7.40;4.80;;;;;;;21.18;70.51;100158.57;4998133;57;1138895;-64
2023/07/23 08:59:12;;;;;;;5.45;4.47;;;;;;;21.43;67.01;100152.23;5044465;56;1138960;-64
2023/07/23 09:04:17;;;;;;;10.53;5.92;;;;;;;21.41;65.43;100149.22;5085464;56;1138879;-65
2023/07/23 09:09:24;;;;;;;5.00;4.50;;;;;;;21.48;65.25;100152.48;4939510;57;1141104;-65
2023/07/23 09:14:29;;;;;;;4.72;4.08;;;;;;;21.72;65.31;100142.03;4939627;57;1147366;-64
2023/07/23 09:19:36;;;;;;;6.10;4.30;;;;;;;22.13;61.72;100143.05;4939578;56;1138816;-64
2023/07/23 09:24:42;;;;;;;6.73;4.57;;;;;;;22.13;61.06;100147.09;5099448;55;1138836;-64
2023/07/23 09:29:47;;;;;;;6.00;4.40;;;;;;;22.12;61.90;100152.17;5020475;56;1139106;-64
2023/07/23 09:34:55;;;;;;;6.25;5.17;;;;;;;22.32;61.58;100153.86;5022192;56;1138718;-64
2023/07/23 09:40:01;;;;;;;5.37;4.47;;;;;;;22.56;61.80;100148.94;5063682;56;1138793;-64
2023/07/23 09:45:08;;;;;;;4.20;3.80;;;;;;;22.83;58.20;100143.90;5045196;56;1138960;-65
2023/07/23 09:50:14;;;;;;;4.65;4.25;;;;;;;22.87;57.95;100138.92;5012424;56;1139224;-63
2023/07/23 09:55:22;;;;;;;5.33;4.40;;;;;;;22.89;59.33;100137.69;4944461;57;1138772;-65
2023/07/23 10:00:28;;;;;;;4.80;4.20;;;;;;;23.06;55.64;100125.95;5032182;57;1146674;-65
2023/07/23 10:05:36;;;;;;;6.26;4.80;;;;;;;23.38;57.60;100123.67;5078614;55;1138893;-65
2023/07/23 10:10:42;;;;;;;4.15;3.70;;;;;;;23.67;54.04;100139.95;4975868;57;1139033;-66
2023/07/23 10:15:49;;;;;;;5.75;4.53;;;;;;;23.77;53.86;100133.56;4983767;57;1138740;-64
2023/07/23 10:20:55;;;;;;;7.72;4.28;;;;;;;23.55;53.07;100138.92;5079455;56;1138637;-65
2023/07/23 10:26:21;;;;;;;4.75;4.28;;;;;;;23.61;54.00;100131.86;5058417;56;1138777;-64
2023/07/23 10:31:29;;;;;;;5.55;4.58;;;;;;;23.82;51.72;100134.28;4913851;57;1138944;-65
2023/07/23 10:36:37;;;;;;;4.72;4.30;;;;;;;23.95;50.50;100134.73;4944658;57;1138797;-65
2023/07/23 10:41:55;;;;;;;4.40;4.00;;;;;;;23.88;51.50;100140.16;4990796;57;1138619;-64
2023/07/23 10:47:04;;;;;;;6.08;4.72;;;;;;;23.84;52.24;100130.81;4944381;58;1138732;-65
2023/07/23 10:52:17;;;;;;;6.10;4.97;;;;;;;23.89;52.38;100126.13;4945658;57;1138807;-65
2023/07/23 10:57:26;;;;;;;5.22;4.12;;;;;;;23.89;52.85;100126.95;5042945;56;1138875;-65
2023/07/23 11:02:32;;;;;;;4.97;4.20;;;;;;;23.84;52.84;100117.31;5053788;56;1138739;-64
2023/07/23 11:07:38;;;;;;;5.12;4.22;;;;;;;23.95;53.28;100113.12;5099938;56;1138757;-65
2023/07/23 11:12:44;;;;;;;4.20;3.87;;;;;;;24.35;50.23;100121.84;5127422;56;1138674;-64
2023/07/23 11:17:50;;;;;;;4.70;3.72;;;;;;;24.64;48.20;100109.03;5111452;56;1138904;-64
2023/07/23 11:22:59;;;;;;;3.95;3.60;;;;;;;24.88;49.10;100114.16;5059370;56;1138741;-64
2023/07/23 11:28:04;;;;;;;5.40;3.90;;;;;;;25.07;47.07;100110.97;5064813;57;1138842;-64
2023/07/23 11:33:11;;;;;;;4.40;4.00;;;;;;;24.90;46.08;100107.45;5045020;57;1138754;-64
2023/07/23 11:38:17;;;;;;;4.35;3.17;;;;;;;25.20;47.63;100096.80;5094463;56;1138887;-64
2023/07/23 11:43:23;;;;;;;4.12;3.80;;;;;;;25.20;45.67;100103.57;5080932;56;1138625;-65
2023/07/23 11:48:30;;;;;;;4.92;3.45;;;;;;;24.85;46.27;100101.90;5071835;56;1139027;-64
2023/07/23 11:53:38;;;;;;;4.80;3.73;;;;;;;24.91;49.59;100090.69;5011772;57;1138672;-64
2023/07/23 11:58:44;;;;;;;4.40;3.30;;;;;;;25.00;46.38;100088.58;5035119;57;1138771;-64
2023/07/23 12:03:51;;;;;;;4.00;3.67;;;;;;;25.18;46.08;100079.12;4981020;57;1138939;-64
2023/07/23 12:08:57;;;;;;;3.52;3.22;;;;;;;25.09;45.51;100084.52;4993825;56;1138824;-63
2023/07/23 12:14:04;;;;;;;5.03;4.10;;;;;;;24.90;45.22;100083.66;5098319;56;1138912;-64
2023/07/23 12:19:13;;;;;;;4.87;3.05;;;;;;;24.81;45.38;100087.15;5103906;56;1138824;-64
2023/07/23 12:24:22;;;;;;;5.78;3.72;;;;;;;24.70;47.47;100081.13;5083501;56;1138777;-64
2023/07/23 12:29:29;;;;;;;4.20;3.90;;;;;;;24.58;46.60;100075.31;5118224;56;1139012;-64
2023/07/23 12:34:34;;;;;;;5.03;3.52;;;;;;;24.59;46.84;100068.86;5064633;56;1138876;-65
2023/07/23 12:39:40;;;;;;;4.95;3.75;;;;;;;24.63;47.17;100078.16;5044689;56;1139103;-64
2023/07/23 12:44:46;;;;;;;4.03;3.50;;;;;;;24.61;47.83;100075.67;5098375;56;1138827;-65
2023/07/23 12:49:51;;;;;;;6.62;3.50;;;;;;;24.52;47.01;100081.89;5129490;55;1138990;-67
2023/07/23 12:54:57;;;;;;;9.43;3.50;;;;;;;24.47;47.17;100072.25;5108477;56;1138903;-67
2023/07/23 13:00:03;;;;;;;3.23;2.93;;;;;;;24.65;46.29;100063.89;5107296;56;1138748;-66
2023/07/23 13:05:08;;;;;;;6.55;3.50;;;;;;;24.89;46.29;100056.30;5047713;57;1138739;-67
2023/07/23 13:10:14;;;;;;;5.47;3.62;;;;;;;25.05;45.17;100060.33;5024517;57;1138998;-64
2023/07/23 13:15:20;;;;;;;12.63;4.15;;;;;;;25.16;45.72;100046.87;5018246;57;1138807;-67
2023/07/23 13:20:25;;;;;;;6.67;3.58;;;;;;;25.34;46.36;100049.28;4963348;56;1140986;-65
2023/07/23 13:25:31;;;;;;;4.15;3.75;;;;;;;25.49;45.48;100047.83;4944443;56;1138921;-65
2023/07/23 13:30:37;;;;;;;3.37;3.08;;;;;;;25.63;44.47;100040.39;4944537;56;1138926;-67
2023/07/23 13:35:43;;;;;;;7.40;3.95;;;;;;;25.72;41.57;100033.59;5008669;56;1138852;-65
2023/07/23 13:40:49;;;;;;;2.93;2.73;;;;;;;25.85;43.47;100021.20;5040623;56;1138941;-67
2023/07/23 13:45:54;;;;;;;3.87;3.52;;;;;;;26.02;42.20;100013.25;5053662;56;1138823;-68
2023/07/23 13:51:00;;;;;;;3.90;3.50;;;;;;;26.01;42.57;100018.37;5083161;56;1139141;-67
2023/07/23 13:56:05;;;;;;;4.40;4.00;;;;;;;25.90;42.65;100007.80;4977300;57;1139052;-67
2023/07/23 14:01:11;;;;;;;7.30;3.40;;;;;;;25.83;43.28;99999.45;5022730;56;1138957;-67
2023/07/23 14:06:17;;;;;;;3.98;3.22;;;;;;;25.87;42.75;99987.11;4983461;57;1136750;-66
2023/07/23 14:11:22;;;;;;;5.08;3.58;;;;;;;26.05;43.99;99985.69;5082706;56;1136508;-65
2023/07/23 14:16:28;;;;;;;3.87;3.35;;;;;;;26.27;42.93;99984.61;5074727;56;1136891;-65
2023/07/23 14:21:34;;;;;;;5.42;3.20;;;;;;;26.32;42.41;99975.25;5021230;57;1136712;-67
2023/07/23 14:26:40;;;;;;;8.90;3.30;;;;;;;26.34;42.34;99974.49;5003832;57;1136696;-67
2023/07/23 14:31:45;;;;;;;6.90;3.00;;;;;;;26.42;43.13;99965.20;5021021;57;1136602;-65
2023/07/23 14:36:51;;;;;;;4.45;3.72;;;;;;;26.37;40.97;99955.58;5020136;56;1136783;-64
2023/07/23 14:41:56;;;;;;;7.30;3.60;;;;;;;26.26;42.02;99946.36;5078972;57;1136648;-67
2023/07/23 14:47:02;;;;;;;7.78;3.77;;;;;;;26.17;41.63;99947.75;5076772;57;1136801;-66
2023/07/23 14:52:08;;;;;;;4.03;3.22;;;;;;;26.20;42.52;99941.86;5102898;56;1136780;-67
2023/07/23 14:57:13;;;;;;;7.70;3.15;;;;;;;26.27;41.53;99935.28;5103405;56;1136621;-65
2023/07/23 15:02:19;;;;;;;3.00;2.80;;;;;;;26.32;42.63;99930.52;5128440;56;1136538;-66
2023/07/23 15:07:24;;;;;;;4.25;3.55;;;;;;;26.36;41.71;99924.92;5064894;56;1136617;-67
2023/07/23 15:12:30;;;;;;;5.75;3.22;;;;;;;26.33;41.67;99915.91;5112514;55;1137101;-67
2023/07/23 15:17:37;;;;;;;3.58;3.25;;;;;;;26.27;42.49;99910.88;5104573;56;1136606;-67
2023/07/23 15:22:43;;;;;;;4.67;4.10;;;;;;;26.24;42.46;99905.09;4983457;57;1136818;-65
2023/07/23 15:27:51;;;;;;;3.57;3.30;;;;;;;26.24;42.73;99893.72;5065623;57;1136905;-66
2023/07/23 15:32:57;;;;;;;4.60;3.20;;;;;;;26.22;42.47;99891.78;4983071;57;1137005;-66
2023/07/23 15:38:03;;;;;;;6.65;3.87;;;;;;;26.21;42.26;99884.70;4983472;57;1136995;-66
2023/07/23 15:43:08;;;;;;;5.35;3.87;;;;;;;26.22;42.31;99882.81;5035637;57;1136893;-66
2023/07/23 15:48:14;;;;;;;3.67;3.35;;;;;;;26.25;42.45;99874.22;5036400;56;1136993;-65
2023/07/23 15:53:20;;;;;;;6.67;3.60;;;;;;;26.26;42.31;99875.34;4982464;56;1136458;-64
2023/07/23 15:58:25;;;;;;;5.15;3.35;;;;;;;26.26;42.18;99860.43;5063357;56;1136809;-65
2023/07/23 16:03:31;;;;;;;4.50;3.55;;;;;;;26.24;42.41;99856.30;5056179;57;1136698;-64
2023/07/23 16:08:36;;;;;;;7.80;4.90;;;;;;;26.21;42.68;99844.04;5119858;56;1136739;-65
2023/07/23 16:13:43;;;;;;;5.75;4.90;;;;;;;26.16;43.26;99837.67;5070490;56;1136704;-64
2023/07/23 16:18:49;;;;;;;5.67;4.03;;;;;;;26.12;43.18;99833.28;5129085;56;1136670;-65
2023/07/23 16:23:54;;;;;;;4.28;3.02;;;;;;;26.08;43.44;99828.56;5147069;56;1136684;-64
2023/07/23 16:29:00;;;;;;;6.50;3.45;;;;;;;26.08;44.83;99825.84;5134645;56;1136319;-64
2023/07/23 16:34:06;;;;;;;5.12;3.65;;;;;;;26.00;45.54;99852.76;5147475;56;1136382;-64
2023/07/23 16:39:14;;;;;;;12.97;4.17;;;;;;;25.88;47.60;99860.89;5148589;56;1136539;-65
2023/07/23 16:44:20;;;;;;;14.00;4.33;;;;;;;25.81;50.35;99829.57;5148687;56;1138597;-65
2023/07/23 16:49:25;;;;;;;7.55;4.60;;;;;;;25.65;52.13;99807.24;5147884;55;1138874;-64
2023/07/23 16:54:31;;;;;;;4.55;4.20;;;;;;;25.47;54.48;99798.13;5148869;56;1136451;-64
2023/07/23 16:59:38;;;;;;;4.90;4.50;;;;;;;25.22;52.69;99793.41;5100434;56;1136599;-67
2023/07/23 17:04:47;;;;;;;3.62;3.33;;;;;;;25.07;52.62;99783.02;4985644;57;1136653;-65
2023/07/23 17:09:53;;;;;;;5.62;3.90;;;;;;;24.97;52.41;99781.41;5148971;56;1136606;-64
2023/07/23 17:14:59;;;;;;;4.60;3.72;;;;;;;24.88;52.55;99780.06;5064507;57;1136859;-65
2023/07/23 17:20:05;;;;;;;7.78;3.65;;;;;;;24.81;51.93;99772.56;5059318;57;1136557;-64
2023/07/23 17:25:10;;;;;;;4.28;3.58;;;;;;;24.76;51.98;99767.83;5063466;56;1136579;-65
2023/07/23 17:30:16;;;;;;;5.17;4.03;;;;;;;24.74;51.73;99778.08;5048607;57;1137246;-65
2023/07/23 17:35:22;;;;;;;14.50;9.03;;;;;;;24.65;52.63;99799.71;5030739;58;1137161;-64
2023/07/23 17:40:27;;;;;;;9.10;7.28;;;;;;;24.51;53.33;99773.91;5064416;56;1138843;-65
2023/07/23 17:45:33;;;;;;;11.30;5.20;;;;;;;24.51;53.06;99775.25;4984935;57;1136588;-64
2023/07/23 17:50:39;;;;;;;6.12;3.55;;;;;;;24.50;53.24;99811.45;5064934;57;1138396;-65
2023/07/23 17:55:49;;;;;;;4.47;3.80;;;;;;;24.36;53.73;99816.19;5038690;57;1136441;-64
2023/07/23 18:00:55;;;;;;;6.45;4.25;;;;;;;24.35;52.79;99815.89;5085515;56;1136881;-65
2023/07/23 18:06:00;;;;;;;6.37;3.47;;;;;;;24.38;53.31;99826.78;5148661;56;1136680;-65
2023/07/23 18:11:07;;;;;;;7.50;3.47;;;;;;;24.34;53.64;99831.80;5118992;56;1136662;-65
2023/07/23 18:16:12;;;;;;;7.22;3.52;;;;;;;24.33;53.75;99821.21;5044493;57;1136835;-66
2023/07/23 18:21:18;;;;;;;3.77;3.40;;;;;;;24.32;53.28;99827.67;4983588;57;1136456;-64
2023/07/23 18:26:23;;;;;;;5.62;3.90;;;;;;;24.28;52.25;99818.38;5027718;56;1136995;-67
2023/07/23 18:31:29;;;;;;;7.60;3.40;;;;;;;24.27;50.48;99821.61;5135906;56;1136860;-64
2023/07/23 18:36:35;;;;;;;7.00;3.72;;;;;;;24.32;48.17;99822.27;5079066;56;1136638;-64
2023/07/23 18:41:40;;;;;;;5.75;3.33;;;;;;;24.39;47.63;99818.45;5095851;56;1136669;-64
2023/07/23 18:46:46;;;;;;;4.85;3.15;;;;;;;24.48;43.94;99809.49;5063332;57;1136938;-64
2023/07/23 18:51:52;;;;;;;5.90;3.13;;;;;;;24.57;43.95;99809.50;4978841;57;1136714;-65
2023/07/23 18:56:57;;;;;;;5.33;3.25;;;;;;;24.60;43.25;99800.08;5064851;57;1136651;-65
2023/07/23 19:02:03;;;;;;;4.58;3.00;;;;;;;24.61;43.62;99804.44;5051860;57;1136813;-65
2023/07/23 19:07:09;;;;;;;3.50;3.22;;;;;;;24.59;43.51;99818.22;4983253;56;1136753;-65
2023/07/23 19:12:16;;;;;;;6.90;3.40;;;;;;;24.53;43.10;99818.59;5064201;57;1136674;-64
2023/07/23 19:17:21;;;;;;;4.83;4.05;;;;;;;24.49;42.13;99828.20;5115518;56;1136930;-65
2023/07/23 19:22:27;;;;;;;5.22;3.85;;;;;;;24.41;42.36;99832.56;5086100;56;1136684;-65
2023/07/23 19:27:33;;;;;;;5.62;3.47;;;;;;;24.38;42.27;99840.30;5064801;57;1136535;-65
2023/07/23 19:32:40;;;;;;;8.48;3.60;;;;;;;24.33;41.58;99846.36;5094698;56;1136751;-67
2023/07/23 19:37:49;;;;;;;3.97;3.53;;;;;;;24.31;41.56;99848.46;5049313;57;1136694;-65
2023/07/23 19:42:54;;;;;;;7.50;3.33;;;;;;;24.28;41.36;99846.23;5118900;56;1136830;-65
2023/07/23 19:48:01;;;;;;;3.60;3.30;;;;;;;24.27;41.85;99851.34;5064472;57;1136935;-65
2023/07/23 19:53:07;;;;;;;11.22;3.80;;;;;;;24.23;42.08;99854.67;5118751;56;1136553;-65
2023/07/23 19:58:12;;;;;;;4.35;3.65;;;;;;;24.18;41.83;99854.80;5118469;56;1138885;-65
2023/07/23 20:03:18;;;;;;;4.12;3.72;;;;;;;24.15;42.20;99858.47;5064353;57;1136847;-65
2023/07/23 20:08:24;;;;;;;4.12;3.67;;;;;;;24.13;42.75;99855.20;5064331;57;1136612;-66
2023/07/23 20:13:30;;;;;;;3.98;3.55;;;;;;;24.11;42.91;99850.53;5064973;56;1136558;-65
2023/07/23 20:18:35;;;;;;;3.62;3.33;;;;;;;24.08;43.22;99848.27;5064513;57;1136719;-65
2023/07/23 20:23:41;;;;;;;4.53;3.60;;;;;;;24.01;43.34;99852.38;5099149;56;1136505;-65
2023/07/23 20:28:47;;;;;;;3.92;3.55;;;;;;;23.96;43.52;99849.53;5064742;57;1136808;-65
2023/07/23 20:33:53;;;;;;;4.43;3.50;;;;;;;23.91;43.76;99861.52;5050980;56;1136850;-65
2023/07/23 20:39:02;;;;;;;5.85;3.75;;;;;;;23.84;44.12;99862.09;5149262;55;1136577;-65
2023/07/23 20:44:08;;;;;;;5.08;3.77;;;;;;;23.75;44.32;99865.60;5005263;57;1136932;-65
2023/07/23 20:49:14;;;;;;;7.85;3.42;;;;;;;23.67;44.23;99862.36;5029522;57;1136719;-65
2023/07/23 20:54:19;;;;;;;4.08;3.02;;;;;;;23.60;44.54;99860.22;5100523;56;1136816;-65
2023/07/23 20:59:25;;;;;;;3.58;3.20;;;;;;;23.48;44.97;99863.61;5143353;56;1136664;-65
2023/07/23 21:04:30;;;;;;;6.85;3.58;;;;;;;23.35;45.19;99863.70;5077734;56;1136655;-65
2023/07/23 21:09:36;;;;;;;4.00;3.60;;;;;;;23.23;45.61;99873.51;5080391;56;1136649;-65
2023/07/23 21:14:42;;;;;;;6.62;3.75;;;;;;;23.12;46.08;99869.64;5108227;56;1136922;-67
2023/07/23 21:19:47;;;;;;;3.55;3.25;;;;;;;23.01;46.46;99874.38;5034115;57;1136579;-65
2023/07/23 21:24:53;;;;;;;5.73;3.33;;;;;;;22.90;46.84;99875.58;5076121;57;1136502;-65
2023/07/23 21:29:59;;;;;;;3.70;3.40;;;;;;;22.78;47.34;99884.31;5107791;57;1136614;-66
2023/07/23 21:35:05;;;;;;;4.47;3.35;;;;;;;22.66;47.84;99885.17;5013892;57;1136750;-65
2023/07/23 21:40:10;;;;;;;8.80;3.50;;;;;;;22.52;48.37;99875.47;5011149;57;1137096;-66
2023/07/23 21:45:16;;;;;;;6.08;3.30;;;;;;;22.39;48.98;99873.65;5019966;57;1136598;-65
2023/07/23 21:50:22;;;;;;;3.80;3.45;;;;;;;22.29;49.37;99880.83;5123578;56;1136645;-65
2023/07/23 21:55:28;;;;;;;6.33;3.00;;;;;;;22.24;49.84;99878.45;5083651;57;1136615;-65
2023/07/23 22:00:33;;;;;;;4.50;3.67;;;;;;;22.17;50.26;99874.92;5001588;57;1136492;-65
2023/07/23 22:05:40;;;;;;;8.50;3.83;;;;;;;22.10;50.81;99874.95;5009388;57;1136525;-65
2023/07/23 22:10:46;;;;;;;3.52;3.22;;;;;;;22.04;51.41;99872.56;5056853;56;1136627;-65
2023/07/23 22:15:53;;;;;;;5.58;3.37;;;;;;;21.93;51.77;99873.17;5129527;55;1136575;-65
2023/07/23 22:20:58;;;;;;;13.38;3.40;;;;;;;21.81;52.28;99869.45;5062598;56;1136625;-68
2023/07/23 22:26:04;;;;;;;3.72;3.10;;;;;;;21.72;52.87;99872.86;5009441;57;1138730;-67
2023/07/23 22:31:09;;;;;;;5.42;3.30;;;;;;;21.58;53.37;99870.37;5062148;57;1136478;-64
2023/07/23 22:36:15;;;;;;;6.83;2.83;;;;;;;21.44;54.14;99873.56;5073703;57;1136698;-65
2023/07/23 22:41:21;;;;;;;4.60;3.40;;;;;;;21.31;54.92;99873.55;5061553;57;1136834;-65
2023/07/23 22:46:27;;;;;;;5.20;2.95;;;;;;;21.20;55.90;99876.84;5103257;56;1136775;-65
2023/07/23 22:51:32;;;;;;;3.92;3.50;;;;;;;21.12;56.60;99880.50;5115012;56;1136812;-66
2023/07/23 22:56:40;;;;;;;3.37;2.65;;;;;;;21.02;57.25;99874.17;5123255;56;1136627;-65
2023/07/23 23:01:45;;;;;;;3.02;2.83;;;;;;;20.94;57.45;99877.54;5015322;57;1137144;-65
2023/07/23 23:06:51;;;;;;;5.47;2.90;;;;;;;20.82;57.95;99873.78;5096136;56;1136644;-65
2023/07/23 23:11:56;;;;;;;3.20;2.85;;;;;;;20.72;58.71;99876.85;5075403;56;1136906;-65
2023/07/23 23:17:03;;;;;;;3.00;2.72;;;;;;;20.59;58.98;99860.16;5136478;56;1136900;-65